createdAt,value
2022-12-13T00:00:49.723Z,99573.09
2022-12-13T00:02:21.835Z,99569.66
2022-12-13T00:03:54.720Z,99579.00
2022-12-13T00:05:26.716Z,99575.56
2022-12-13T00:06:58.766Z,99574.75
2022-12-13T00:08:30.713Z,99579.84
2022-12-13T00:10:03.039Z,99577.25
2022-12-13T00:11:35.507Z,99587.47
2022-12-13T00:13:07.794Z,99590.84
2022-12-13T00:14:39.845Z,99599.38
2022-12-13T00:16:14.039Z,99592.59
2022-12-13T00:17:46.056Z,99599.41
2022-12-13T00:19:18.721Z,99592.59
2022-12-13T00:20:50.742Z,99601.94
2022-12-13T00:22:22.783Z,99595.16
2022-12-13T00:25:31.468Z,99610.41
2022-12-13T00:27:03.551Z,99616.41
2022-12-13T00:28:35.497Z,99618.09
2022-12-13T00:30:08.056Z,99611.28
2022-12-13T00:33:32.166Z,99611.25
2022-12-13T00:35:04.345Z,99609.50
2022-12-13T00:36:36.314Z,99615.47
2022-12-13T00:38:11.931Z,99618.06
2022-12-13T00:39:43.938Z,99615.41
2022-12-13T00:41:18.160Z,99614.59
2022-12-13T00:42:50.080Z,99617.06
2022-12-13T00:44:22.107Z,99614.50
2022-12-13T00:45:54.211Z,99620.47
2022-12-13T00:47:26.206Z,99623.88
2022-12-13T00:49:00.363Z,99619.59
2022-12-13T00:50:33.342Z,99611.06
2022-12-13T00:52:05.355Z,99618.72
2022-12-13T00:53:37.483Z,99611.81
2022-12-13T00:55:10.023Z,99609.28
2022-12-13T00:56:42.221Z,99616.09
2022-12-13T00:58:14.203Z,99613.47
2022-12-13T00:59:46.251Z,99619.44
2022-12-13T01:01:20.357Z,99616.00
2022-12-13T01:02:55.207Z,99613.47
2022-12-13T01:04:27.281Z,99612.56
2022-12-13T01:06:16.457Z,99618.53
2022-12-13T01:07:49.131Z,99618.56
2022-12-13T01:09:27.666Z,99621.19
2022-12-13T01:10:59.662Z,99620.31
2022-12-13T01:12:31.609Z,99622.84
2022-12-13T01:14:03.592Z,99625.41
2022-12-13T01:15:35.523Z,99614.28
2022-12-13T01:17:08.059Z,99621.97
2022-12-13T01:18:41.167Z,99621.13
2022-12-13T01:20:13.127Z,99619.44
2022-12-13T01:21:45.178Z,99617.69
2022-12-13T01:23:17.388Z,99621.94
2022-12-13T01:24:49.588Z,99623.63
2022-12-13T01:26:22.228Z,99626.19
2022-12-13T01:27:54.179Z,99624.44
2022-12-13T01:29:27.224Z,99625.34
2022-12-13T01:31:02.050Z,99615.91
2022-12-13T01:32:34.031Z,99622.69
2022-12-13T01:34:10.791Z,99620.13
2022-12-13T01:35:42.827Z,99626.06
2022-12-13T01:38:59.310Z,99626.94
2022-12-13T01:40:31.513Z,99630.31
2022-12-13T01:42:11.762Z,99628.59
2022-12-13T01:43:43.715Z,99632.84
2022-12-13T01:45:21.655Z,99639.69
2022-12-13T01:46:53.736Z,99628.56
2022-12-13T01:48:29.303Z,99635.41
2022-12-13T01:50:04.898Z,99630.31
2022-12-13T01:51:38.831Z,99641.34
2022-12-13T01:53:13.810Z,99626.88
2022-12-13T01:54:49.040Z,99636.31
2022-12-13T01:56:34.284Z,99636.34
2022-12-13T01:58:06.501Z,99638.81
2022-12-13T01:59:40.525Z,99636.22
2022-12-13T02:01:12.615Z,99631.09
2022-12-13T02:02:45.593Z,99636.19
2022-12-13T02:04:27.207Z,99628.53
2022-12-13T02:06:03.999Z,99638.81
2022-12-13T02:07:37.899Z,99643.06
2022-12-13T02:09:11.167Z,99638.75
2022-12-13T02:10:43.737Z,99634.47
2022-12-13T02:12:15.907Z,99631.88
2022-12-13T02:13:47.962Z,99640.34
2022-12-13T02:15:20.389Z,99638.63
2022-12-13T02:17:01.970Z,99637.78
2022-12-13T02:18:33.908Z,99636.75
2022-12-13T02:20:32.110Z,99636.78
2022-12-13T02:22:04.171Z,99636.72
2022-12-13T02:24:12.916Z,99641.91
2022-12-13T02:26:07.726Z,99640.22
2022-12-13T02:28:00.770Z,99639.25
2022-12-13T02:29:52.315Z,99643.56
2022-12-13T02:31:42.887Z,99652.06
2022-12-13T02:33:44.082Z,99646.19
2022-12-13T02:35:28.798Z,99637.66
2022-12-13T02:37:26.762Z,99643.56
2022-12-13T02:39:03.819Z,99646.13
2022-12-13T02:40:47.484Z,99649.50
2022-12-13T02:42:24.659Z,99640.13
2022-12-13T02:44:01.233Z,99641.69
2022-12-13T02:45:54.653Z,99650.31
2022-12-13T02:47:28.002Z,99645.97
2022-12-13T02:49:00.597Z,99651.94
2022-12-13T02:50:34.331Z,99653.63
2022-12-13T02:52:08.571Z,99652.00
2022-12-13T02:53:41.699Z,99651.13
2022-12-13T02:55:15.613Z,99647.69
2022-12-13T02:56:57.635Z,99654.53
2022-12-13T02:58:33.940Z,99652.75
2022-12-13T03:00:10.378Z,99659.53
2022-12-13T03:02:09.789Z,99661.22
2022-12-13T03:03:49.041Z,99673.13
2022-12-13T03:05:57.013Z,99676.53
2022-12-13T03:07:54.184Z,99665.50
2022-12-13T03:09:44.093Z,99665.53
2022-12-13T03:11:19.194Z,99668.03
2022-12-13T03:13:21.892Z,99662.91
2022-12-13T03:15:16.491Z,99674.75
2022-12-13T03:16:50.547Z,99677.25
2022-12-13T03:18:25.164Z,99672.91
2022-12-13T03:19:57.109Z,99675.41
2022-12-13T03:21:29.327Z,99670.31
2022-12-13T03:23:01.304Z,99676.25
2022-12-13T03:24:33.322Z,99673.81
2022-12-13T03:26:10.210Z,99674.72
2022-12-13T03:27:42.213Z,99669.63
2022-12-13T03:29:14.776Z,99671.44
2022-12-13T03:30:56.686Z,99669.75
2022-12-13T03:32:28.707Z,99673.16
2022-12-13T03:34:00.703Z,99674.78
2022-12-13T03:35:34.386Z,99674.78
2022-12-13T03:37:16.053Z,99678.16
2022-12-13T03:38:49.610Z,99673.91
2022-12-13T03:40:21.429Z,99670.59
2022-12-13T03:41:53.488Z,99665.31
2022-12-13T03:43:25.868Z,99659.28
2022-12-13T03:44:57.804Z,99660.06
2022-12-13T03:46:29.776Z,99666.84
2022-12-13T03:48:01.820Z,99663.41
2022-12-13T03:49:35.827Z,99669.28
2022-12-13T03:51:07.980Z,99665.00
2022-12-13T03:52:43.127Z,99666.69
2022-12-13T03:54:15.170Z,99676.03
2022-12-13T03:55:47.726Z,99681.94
2022-12-13T03:57:19.655Z,99673.41
2022-12-13T03:58:51.853Z,99677.66
2022-12-13T04:00:23.906Z,99681.09
2022-12-13T04:01:55.894Z,99674.25
2022-12-13T04:03:29.348Z,99676.88
2022-12-13T04:05:01.401Z,99674.31
2022-12-13T04:06:33.518Z,99675.16
2022-12-13T04:08:06.074Z,99678.59
2022-12-13T04:09:54.567Z,99680.25
2022-12-13T04:11:45.178Z,99681.91
2022-12-13T04:13:35.323Z,99681.09
2022-12-13T04:15:08.062Z,99684.47
2022-12-13T04:16:40.196Z,99691.25
2022-12-13T04:18:12.201Z,99694.66
2022-12-13T04:19:44.296Z,99698.94
2022-12-13T04:21:16.362Z,99701.53
2022-12-13T04:22:48.326Z,99708.34
2022-12-13T04:24:21.345Z,99704.97
2022-12-13T04:26:03.040Z,99699.88
2022-12-13T04:27:35.046Z,99703.31
2022-12-13T04:29:09.828Z,99707.53
2022-12-13T04:30:41.774Z,99710.88
2022-12-13T04:32:26.320Z,99713.44
2022-12-13T04:33:59.028Z,99723.63
2022-12-13T04:35:33.134Z,99726.16
2022-12-13T04:37:05.643Z,99732.13
2022-12-13T04:38:37.604Z,99735.56
2022-12-13T04:40:10.202Z,99739.81
2022-12-13T04:41:42.295Z,99750.88
2022-12-13T04:43:14.263Z,99755.13
2022-12-13T04:44:46.433Z,99743.22
2022-12-13T04:46:19.360Z,99747.44
2022-12-13T04:47:51.365Z,99755.97
2022-12-13T04:49:23.354Z,99752.50
2022-12-13T04:50:55.639Z,99754.13
2022-12-13T04:52:33.124Z,99749.81
2022-12-13T04:54:24.325Z,99747.25
2022-12-13T04:55:57.502Z,99748.13
2022-12-13T04:57:30.776Z,99748.06
2022-12-13T04:59:04.031Z,99754.03
2022-12-13T05:00:36.073Z,99756.53
2022-12-13T05:02:09.373Z,99758.25
2022-12-13T05:03:41.418Z,99764.19
2022-12-13T05:06:45.177Z,99764.06
2022-12-13T05:08:20.109Z,99764.06
2022-12-13T05:09:52.092Z,99760.50
2022-12-13T05:11:24.108Z,99761.34
2022-12-13T05:12:56.087Z,99761.28
2022-12-13T05:14:28.088Z,99762.97
2022-12-13T05:16:03.023Z,99766.41
2022-12-13T05:17:35.069Z,99766.25
2022-12-13T05:19:07.139Z,99762.81
2022-12-13T05:20:40.160Z,99767.88
2022-12-13T05:22:20.899Z,99772.03
2022-12-13T05:23:53.191Z,99773.59
2022-12-13T05:25:25.810Z,99779.50
2022-12-13T05:26:58.586Z,99781.06
2022-12-13T05:28:31.015Z,99777.53
2022-12-13T05:30:06.826Z,99782.47
2022-12-13T05:31:38.922Z,99772.91
2022-12-13T05:33:12.413Z,99772.78
2022-12-13T05:36:25.790Z,99769.13
2022-12-13T05:37:58.020Z,99769.06
2022-12-13T05:39:30.383Z,99757.00
2022-12-13T05:41:02.447Z,99764.69
2022-12-13T05:42:34.521Z,99771.44
2022-12-13T05:44:06.477Z,99765.44
2022-12-13T05:45:38.691Z,99764.50
2022-12-13T05:47:10.786Z,99763.56
2022-12-13T05:48:45.356Z,99774.59
2022-12-13T05:50:18.021Z,99773.69
2022-12-13T05:51:50.117Z,99776.94
2022-12-13T05:53:30.876Z,99783.59
2022-12-13T05:55:03.915Z,99785.16
2022-12-13T05:56:35.945Z,99784.31
2022-12-13T05:58:13.144Z,99789.19
2022-12-13T05:59:45.444Z,99789.88
2022-12-13T06:01:17.621Z,99792.38
2022-12-13T06:02:49.715Z,99789.72
2022-12-13T06:04:22.913Z,99794.66
2022-12-13T06:05:55.439Z,99799.56
2022-12-13T06:07:27.766Z,99804.22
2022-12-13T06:09:00.044Z,99807.25
2022-12-13T06:10:34.178Z,99804.47
2022-12-13T06:12:31.897Z,99802.84
2022-12-13T06:14:00.973Z,99808.72
2022-12-13T06:15:34.815Z,99806.91
2022-12-13T06:17:07.160Z,99821.44
2022-12-13T06:18:39.351Z,99822.44
2022-12-13T06:20:23.219Z,99815.78
2022-12-13T06:21:56.573Z,99809.91
2022-12-13T06:23:29.878Z,99810.72
2022-12-13T06:25:02.087Z,99812.41
2022-12-13T06:26:34.238Z,99811.53
2022-12-13T06:28:06.278Z,99808.28
2022-12-13T06:29:38.632Z,99813.47
2022-12-13T06:31:10.912Z,99813.53
2022-12-13T06:32:44.067Z,99810.97
2022-12-13T06:35:58.374Z,99801.72
2022-12-13T06:37:30.153Z,99814.44
2022-12-13T06:39:06.099Z,99819.34
2022-12-13T06:40:38.110Z,99821.84
2022-12-13T06:42:21.581Z,99825.41
2022-12-13T06:43:54.681Z,99826.06
2022-12-13T06:45:26.831Z,99832.91
2022-12-13T06:47:10.768Z,99836.22
2022-12-13T06:48:44.838Z,99836.22
2022-12-13T06:50:19.916Z,99824.44
2022-12-13T06:51:51.955Z,99831.16
2022-12-13T06:53:25.183Z,99824.38
2022-12-13T06:54:59.996Z,99823.66
2022-12-13T06:56:33.064Z,99833.03
2022-12-13T06:58:05.151Z,99833.13
2022-12-13T06:59:37.288Z,99837.47
2022-12-13T07:01:23.831Z,99838.38
2022-12-13T07:02:57.090Z,99836.41
2022-12-13T07:04:31.089Z,99826.06
2022-12-13T07:06:11.135Z,99832.00
2022-12-13T07:07:43.147Z,99830.13
2022-12-13T07:09:15.282Z,99835.41
2022-12-13T07:10:47.389Z,99841.38
2022-12-13T07:12:22.602Z,99838.97
2022-12-13T07:13:55.435Z,99846.69
2022-12-13T07:15:27.453Z,99854.38
2022-12-13T07:17:03.600Z,99860.38
2022-12-13T07:18:36.039Z,99858.72
2022-12-13T07:20:08.852Z,99860.56
2022-12-13T07:21:40.874Z,99856.38
2022-12-13T07:23:12.967Z,99859.81
2022-12-13T07:24:44.950Z,99858.28
2022-12-13T07:26:17.434Z,99859.94
2022-12-13T07:28:01.580Z,99866.09
2022-12-13T07:29:34.448Z,99865.16
2022-12-13T07:31:08.183Z,99869.53
2022-12-13T07:32:40.256Z,99865.34
2022-12-13T07:34:15.592Z,99858.66
2022-12-13T07:35:47.972Z,99861.31
2022-12-13T07:37:29.773Z,99865.69
2022-12-13T07:39:03.133Z,99868.38
2022-12-13T07:40:35.998Z,99865.84
2022-12-13T07:42:08.116Z,99871.94
2022-12-13T07:43:40.291Z,99870.34
2022-12-13T07:45:12.329Z,99868.72
2022-12-13T07:46:44.347Z,99865.41
2022-12-13T07:48:16.467Z,99869.75
2022-12-13T07:49:48.456Z,99873.25
2022-12-13T07:51:20.704Z,99870.72
2022-12-13T07:52:53.094Z,99879.28
2022-12-13T07:54:25.369Z,99874.25
2022-12-13T07:55:57.554Z,99877.78
2022-12-13T07:57:32.601Z,99882.22
2022-12-13T07:59:04.792Z,99882.31
2022-12-13T08:00:41.340Z,99883.31
2022-12-13T08:02:18.747Z,99879.88
2022-12-13T08:03:50.730Z,99889.31
2022-12-13T08:05:26.601Z,99888.50
2022-12-13T08:06:59.159Z,99882.56
2022-12-13T08:08:31.930Z,99887.75
2022-12-13T08:10:04.375Z,99883.66
2022-12-13T08:11:36.425Z,99890.56
2022-12-13T08:13:09.065Z,99899.16
2022-12-13T08:14:41.139Z,99891.69
2022-12-13T08:16:27.913Z,99889.25
2022-12-13T08:18:01.681Z,99887.59
2022-12-13T08:19:34.535Z,99891.97
2022-12-13T08:21:45.419Z,99891.25
2022-12-13T08:23:03.902Z,99892.16
2022-12-13T08:24:35.873Z,99893.94
2022-12-13T08:26:07.851Z,99882.94
2022-12-13T08:27:42.914Z,99892.44
2022-12-13T08:29:23.065Z,99893.34
2022-12-13T08:31:12.579Z,99880.81
2022-12-13T08:32:45.023Z,99887.69
2022-12-13T08:34:17.043Z,99881.78
2022-12-13T08:35:49.123Z,99881.91
2022-12-13T08:37:21.056Z,99876.00
2022-12-13T08:38:55.929Z,99878.84
2022-12-13T08:40:27.891Z,99872.91
2022-12-13T08:42:16.040Z,99874.72
2022-12-13T08:43:49.490Z,99882.53
2022-12-13T08:45:21.901Z,99880.94
2022-12-13T08:46:54.026Z,99881.03
2022-12-13T08:48:26.141Z,99884.50
2022-12-13T08:50:04.534Z,99883.78
2022-12-13T08:51:36.971Z,99883.81
2022-12-13T08:53:09.307Z,99875.31
2022-12-13T08:54:41.607Z,99872.69
2022-12-13T08:56:13.672Z,99868.44
2022-12-13T08:57:46.441Z,99864.09
2022-12-13T08:59:18.672Z,99869.13
2022-12-13T09:00:51.217Z,99863.13
2022-12-13T09:02:23.200Z,99865.69
2022-12-13T09:03:56.322Z,99858.06
2022-12-13T09:05:34.303Z,99862.34
2022-12-13T09:07:09.022Z,99868.44
2022-12-13T09:08:42.038Z,99871.81
2022-12-13T09:10:27.223Z,99871.78
2022-12-13T09:12:00.211Z,99868.34
2022-12-13T09:13:35.029Z,99865.88
2022-12-13T09:15:22.533Z,99873.50
2022-12-13T09:16:55.258Z,99871.81
2022-12-13T09:18:36.365Z,99862.47
2022-12-13T09:20:28.749Z,99849.78
2022-12-13T09:22:03.030Z,99846.28
2022-12-13T09:23:35.758Z,99839.56
2022-12-13T09:25:08.157Z,99834.47
2022-12-13T09:26:47.037Z,99829.44
2022-12-13T09:28:19.174Z,99830.34
2022-12-13T09:29:51.330Z,99823.66
2022-12-13T09:31:23.671Z,99819.47
2022-12-13T09:32:56.887Z,99820.34
2022-12-13T09:34:29.005Z,99822.88
2022-12-13T09:36:06.134Z,99819.53
2022-12-13T09:37:44.137Z,99811.03
2022-12-13T09:39:17.793Z,99814.50
2022-12-13T09:40:58.986Z,99805.22
2022-12-13T09:44:32.730Z,99817.38
2022-12-13T09:46:22.119Z,99818.25
2022-12-13T09:48:01.216Z,99814.94
2022-12-13T09:49:52.873Z,99813.41
2022-12-13T09:51:27.299Z,99799.72
2022-12-13T09:53:04.081Z,99802.38
2022-12-13T09:54:48.846Z,99795.63
2022-12-13T09:56:22.790Z,99788.03
2022-12-13T09:57:55.116Z,99779.56
2022-12-13T09:59:35.408Z,99777.19
2022-12-13T10:01:07.542Z,99777.19
2022-12-13T10:02:45.753Z,99778.06
2022-12-13T10:04:18.936Z,99780.63
2022-12-13T10:06:02.207Z,99790.09
2022-12-13T10:07:34.209Z,99789.19
2022-12-13T10:09:09.701Z,99788.34
2022-12-13T10:10:43.924Z,99782.41
2022-12-13T10:14:07.378Z,99778.25
2022-12-13T10:15:42.287Z,99773.22
2022-12-13T10:17:17.287Z,99772.41
2022-12-13T10:18:49.224Z,99784.38
2022-12-13T10:20:22.332Z,99773.34
2022-12-13T10:21:54.431Z,99770.84
2022-12-13T10:23:59.405Z,99770.84
2022-12-13T10:26:03.346Z,99775.16
2022-12-13T10:27:37.154Z,99769.13
2022-12-13T10:29:10.565Z,99769.97
2022-12-13T10:30:46.454Z,99769.13
2022-12-13T10:32:19.869Z,99770.84
2022-12-13T10:33:55.851Z,99754.69
2022-12-13T10:35:37.003Z,99752.22
2022-12-13T10:37:28.071Z,99749.66
2022-12-13T10:39:01.014Z,99747.91
2022-12-13T10:40:40.731Z,99753.00
2022-12-13T10:42:22.859Z,99753.81
2022-12-13T10:44:17.702Z,99742.72
2022-12-13T10:45:58.962Z,99741.03
2022-12-13T10:47:31.398Z,99738.44
2022-12-13T10:49:03.998Z,99734.19
2022-12-13T10:50:37.357Z,99728.25
2022-12-13T10:52:31.441Z,99730.00
2022-12-13T10:54:03.762Z,99728.38
2022-12-13T10:55:38.207Z,99717.25
2022-12-13T10:57:12.034Z,99718.16
2022-12-13T10:58:46.778Z,99722.47
2022-12-13T11:00:51.151Z,99721.66
2022-12-13T11:02:31.242Z,99728.53
2022-12-13T11:04:27.195Z,99721.75
2022-12-13T11:06:07.918Z,99720.06
2022-12-13T11:07:39.955Z,99720.91
2022-12-13T11:09:38.872Z,99719.19
2022-12-13T11:11:13.395Z,99710.69
2022-12-13T11:12:45.492Z,99709.00
2022-12-13T11:14:20.482Z,99705.66
2022-12-13T11:16:25.720Z,99703.13
2022-12-13T11:18:01.007Z,99700.53
2022-12-13T11:19:44.961Z,99710.78
2022-12-13T11:21:25.318Z,99710.81
2022-12-13T11:23:06.468Z,99711.69
2022-12-13T11:24:39.455Z,99705.66
2022-12-13T11:26:24.477Z,99707.47
2022-12-13T11:28:32.282Z,99703.19
2022-12-13T11:30:10.325Z,99687.84
2022-12-13T11:32:12.963Z,99689.59
2022-12-13T11:34:16.145Z,99693.91
2022-12-13T11:36:20.062Z,99693.06
2022-12-13T11:38:08.357Z,99688.72
2022-12-13T11:39:50.801Z,99681.91
2022-12-13T11:41:37.957Z,99668.28
2022-12-13T11:43:44.401Z,99664.97
2022-12-13T11:45:24.105Z,99671.78
2022-12-13T11:46:58.847Z,99671.78
2022-12-13T11:48:42.261Z,99684.66
2022-12-13T11:50:21.994Z,99681.22
2022-12-13T11:52:18.033Z,99678.66
2022-12-13T11:54:04.051Z,99684.69
2022-12-13T11:55:40.070Z,99678.72
2022-12-13T11:57:46.672Z,99665.09
2022-12-13T11:59:28.403Z,99663.41
2022-12-13T12:01:11.154Z,99658.28
2022-12-13T12:02:47.606Z,99661.69
2022-12-13T12:04:49.134Z,99664.28
2022-12-13T12:06:23.968Z,99663.44
2022-12-13T12:08:32.076Z,99672.78
2022-12-13T12:10:00.007Z,99659.91
2022-12-13T12:11:49.571Z,99663.34
2022-12-13T12:13:50.811Z,99661.66
2022-12-13T12:15:31.944Z,99655.72
2022-12-13T12:17:06.732Z,99659.16
2022-12-13T12:18:38.925Z,99653.16
2022-12-13T12:20:15.561Z,99648.84
2022-12-13T12:22:13.662Z,99655.66
2022-12-13T12:24:05.790Z,99660.81
2022-12-13T12:25:48.612Z,99664.28
2022-12-13T12:27:26.017Z,99669.44
2022-12-13T12:29:14.302Z,99666.88
2022-12-13T12:31:13.083Z,99666.03
2022-12-13T12:32:51.424Z,99674.63
2022-12-13T12:34:27.597Z,99682.31
2022-12-13T12:36:09.438Z,99680.59
2022-12-13T12:37:54.907Z,99683.16
2022-12-13T12:42:02.933Z,99683.16
2022-12-13T12:43:42.475Z,99680.56
2022-12-13T12:45:55.437Z,99685.66
2022-12-13T12:49:56.109Z,99672.84
2022-12-13T12:51:56.116Z,99668.59
2022-12-13T12:53:31.337Z,99669.44
2022-12-13T12:55:20.423Z,99670.31
2022-12-13T12:56:56.084Z,99672.00
2022-12-13T12:58:37.472Z,99663.47
2022-12-13T13:00:10.217Z,99666.00
2022-12-13T13:01:52.263Z,99671.16
2022-12-13T13:03:29.748Z,99677.94
2022-12-13T13:05:29.334Z,99676.28
2022-12-13T13:07:13.285Z,99675.41
2022-12-13T13:09:11.026Z,99674.63
2022-12-13T13:10:50.197Z,99672.84
2022-12-13T13:12:29.654Z,99666.00
2022-12-13T13:14:23.009Z,99672.84
2022-12-13T13:15:56.716Z,99671.13
2022-12-13T13:17:31.895Z,99672.84
2022-12-13T13:19:13.015Z,99672.84
2022-12-13T13:20:45.084Z,99675.41
2022-12-13T13:22:34.396Z,99670.31
2022-12-13T13:24:19.342Z,99670.31
2022-12-13T13:27:51.073Z,99676.31
2022-12-13T13:29:28.810Z,99678.88
2022-12-13T13:31:09.456Z,99676.31
2022-12-13T13:32:41.730Z,99659.16
2022-12-13T13:34:23.723Z,99671.16
2022-12-13T13:35:55.893Z,99673.72
2022-12-13T13:37:30.040Z,99683.97
2022-12-13T13:39:02.093Z,99686.50
2022-12-13T13:40:37.010Z,99686.50
2022-12-13T13:42:15.087Z,99690.75
2022-12-13T13:43:50.220Z,99696.72
2022-12-13T13:45:24.832Z,99701.84
2022-12-13T13:47:34.921Z,99708.72
2022-12-13T13:49:12.970Z,99707.78
2022-12-13T13:50:47.469Z,99716.31
2022-12-13T13:52:25.305Z,99716.28
2022-12-13T13:54:59.332Z,99716.28
2022-12-13T13:57:02.184Z,99716.28
2022-12-13T13:59:22.126Z,99708.56
2022-12-13T14:01:25.797Z,99710.22
2022-12-13T14:03:09.026Z,99717.88
2022-12-13T14:05:22.299Z,99720.41
2022-12-13T14:07:12.711Z,99733.22
2022-12-13T14:08:59.581Z,99739.09
2022-12-13T14:10:49.957Z,99739.88
2022-12-13T14:12:46.782Z,99733.00
2022-12-13T14:14:38.567Z,99734.63
2022-12-13T14:16:47.591Z,99727.66
2022-12-13T14:18:56.596Z,99713.09
2022-12-13T14:20:47.276Z,99720.59
2022-12-13T14:22:55.510Z,99722.34
2022-12-13T14:24:58.451Z,99722.25
2022-12-13T14:27:00.133Z,99719.56
2022-12-13T14:28:47.300Z,99724.56
2022-12-13T14:30:28.357Z,99721.09
2022-12-13T14:32:01.488Z,99720.19
2022-12-13T14:33:34.187Z,99719.34
2022-12-13T14:35:26.055Z,99727.00
2022-12-13T14:37:06.105Z,99729.53
2022-12-13T14:38:38.175Z,99737.97
2022-12-13T14:40:31.813Z,99721.81
2022-12-13T14:42:23.254Z,99720.81
2022-12-13T14:43:55.395Z,99722.31
2022-12-13T14:45:30.430Z,99724.00
2022-12-13T14:47:05.342Z,99728.22
2022-12-13T14:48:45.821Z,99717.03
2022-12-13T14:50:19.422Z,99722.13
2022-12-13T14:51:57.735Z,99726.38
2022-12-13T14:53:41.693Z,99732.28
2022-12-13T14:55:36.945Z,99733.97
2022-12-13T14:57:16.600Z,99732.19
2022-12-13T14:59:00.137Z,99723.56
2022-12-13T15:00:39.682Z,99726.06
2022-12-13T15:02:18.812Z,99735.41
2022-12-13T15:04:19.335Z,99733.66
2022-12-13T15:06:02.451Z,99727.66
2022-12-13T15:07:38.070Z,99742.84
2022-12-13T15:09:14.632Z,99740.31
2022-12-13T16:20:30.275Z,99778.16
2022-12-13T16:22:02.520Z,99772.91
2022-12-13T16:23:40.903Z,99781.38
2022-12-13T16:25:21.000Z,99781.22
2022-12-13T16:26:53.004Z,99784.59
2022-12-13T16:28:25.930Z,99779.50
2022-12-13T16:29:58.415Z,99780.22
2022-12-13T16:31:36.091Z,99779.31
2022-12-13T16:33:29.650Z,99786.81
2022-12-13T16:35:01.075Z,99789.31
2022-12-13T16:36:33.382Z,99779.84
2022-12-13T16:38:09.417Z,99766.03
2022-12-13T16:39:41.934Z,99774.56
2022-12-13T16:41:15.149Z,99777.94
2022-12-13T16:42:47.254Z,99773.66
2022-12-13T16:44:38.991Z,99771.22
2022-12-13T16:47:12.886Z,99768.56
2022-12-13T16:48:06.721Z,99770.22
2022-12-13T16:49:38.932Z,99768.53
2022-12-13T16:51:10.989Z,99770.97
2022-12-13T16:52:43.245Z,99767.50
2022-12-13T16:55:58.271Z,99767.41
2022-12-13T16:57:31.207Z,99768.28
2022-12-13T16:59:03.226Z,99758.00
2022-12-13T17:00:35.312Z,99773.38
2022-12-13T17:02:13.453Z,99778.56
2022-12-13T17:03:45.778Z,99778.47
2022-12-13T17:05:18.010Z,99781.75
2022-12-13T17:06:50.982Z,99774.97
2022-12-13T17:08:28.082Z,99777.47
2022-12-13T17:10:00.358Z,99768.13
2022-12-13T17:11:33.584Z,99765.63
2022-12-13T17:13:05.531Z,99760.47
2022-12-13T17:14:37.466Z,99759.50
2022-12-13T17:16:09.465Z,99770.59
2022-12-13T17:17:45.022Z,99770.63
2022-12-13T17:19:17.693Z,99776.63
2022-12-13T17:20:58.737Z,99786.00
2022-12-13T17:22:34.049Z,99783.50
2022-12-13T17:24:06.441Z,99791.22
2022-12-13T17:25:39.282Z,99792.16
2022-12-13T17:27:11.712Z,99796.25
2022-12-13T17:28:43.799Z,99782.56
2022-12-13T17:30:17.188Z,99792.84
2022-12-13T17:31:49.140Z,99786.81
2022-12-13T17:33:21.071Z,99788.50
2022-12-13T17:34:53.339Z,99795.34
2022-12-13T17:36:27.148Z,99794.34
2022-12-13T17:37:59.457Z,99812.16
2022-12-13T17:39:31.971Z,99807.88
2022-12-13T17:41:04.253Z,99801.78
2022-12-13T17:42:36.545Z,99797.38
2022-12-13T17:44:09.144Z,99801.47
2022-12-13T17:45:44.102Z,99807.47
2022-12-13T17:47:16.885Z,99805.78
2022-12-13T17:48:48.990Z,99816.00
2022-12-13T17:50:20.953Z,99808.31
2022-12-13T17:51:54.658Z,99801.53
2022-12-13T17:53:27.019Z,99792.09
2022-12-13T17:55:01.231Z,99792.03
2022-12-13T17:56:33.268Z,99784.25
2022-12-13T17:59:43.114Z,99787.53
2022-12-13T18:01:20.572Z,99785.84
2022-12-13T18:02:55.323Z,99789.19
2022-12-13T18:04:27.829Z,99784.09
2022-12-13T18:06:00.267Z,99791.88
2022-12-13T18:07:32.765Z,99795.22
2022-12-13T18:09:04.886Z,99793.47
2022-12-13T18:10:36.975Z,99795.94
2022-12-13T18:12:09.008Z,99789.13
2022-12-13T18:13:41.261Z,99798.47
2022-12-13T18:15:13.339Z,99795.94
2022-12-13T18:16:45.464Z,99792.56
2022-12-13T18:18:17.682Z,99783.19
2022-12-13T18:19:49.702Z,99793.28
2022-12-13T18:21:21.850Z,99797.41
2022-12-13T18:22:53.900Z,99798.09
2022-12-13T18:24:26.364Z,99798.09
2022-12-13T18:26:02.466Z,99799.00
2022-12-13T18:27:34.600Z,99803.00
2022-12-13T18:29:06.912Z,99806.47
2022-12-13T18:30:39.308Z,99807.41
2022-12-13T18:32:11.277Z,99799.00
2022-12-13T18:33:47.452Z,99797.25
2022-12-13T18:35:20.328Z,99792.94
2022-12-13T18:36:52.483Z,99791.94
2022-12-13T18:38:29.186Z,99790.13
2022-12-13T18:40:08.307Z,99796.28
2022-12-13T18:41:40.681Z,99798.78
2022-12-13T18:43:12.836Z,99799.69
2022-12-13T18:44:54.550Z,99806.47
2022-12-13T18:46:31.328Z,99812.50
2022-12-13T18:48:03.559Z,99808.09
2022-12-13T18:49:35.577Z,99816.47
2022-12-13T18:51:09.031Z,99813.13
2022-12-13T18:52:41.798Z,99805.44
2022-12-13T18:54:14.385Z,99805.38
2022-12-13T18:55:46.480Z,99800.19
2022-12-13T18:57:19.186Z,99805.09
2022-12-13T18:58:51.747Z,99805.75
2022-12-13T19:00:24.683Z,99804.88
2022-12-13T19:01:57.203Z,99802.28
2022-12-13T19:05:02.139Z,99804.81
2022-12-13T19:06:34.174Z,99808.94
2022-12-13T19:08:06.326Z,99810.53
2022-12-13T19:09:38.407Z,99812.22
2022-12-13T19:11:13.654Z,99810.53
2022-12-13T19:12:45.678Z,99814.66
2022-12-13T19:14:22.330Z,99814.41
2022-12-13T19:16:03.315Z,99810.13
2022-12-13T19:17:35.408Z,99803.28
2022-12-13T19:19:07.615Z,99809.28
2022-12-13T19:20:46.332Z,99812.06
2022-12-13T19:22:18.291Z,99825.63
2022-12-13T19:23:57.091Z,99813.69
2022-12-13T19:25:29.763Z,99817.19
2022-12-13T19:27:01.830Z,99816.41
2022-12-13T19:28:34.591Z,99814.69
2022-12-13T19:30:07.338Z,99812.06
2022-12-13T19:31:39.417Z,99808.66
2022-12-13T19:33:11.869Z,99805.16
2022-12-13T19:34:44.386Z,99804.19
2022-12-13T19:36:16.722Z,99802.28
2022-12-13T19:37:48.761Z,99800.56
2022-12-13T19:39:21.020Z,99805.72
2022-12-13T19:40:53.163Z,99804.03
2022-12-13T19:42:25.160Z,99802.31
2022-12-13T19:43:57.115Z,99804.91
2022-12-13T19:45:29.147Z,99804.00
2022-12-13T19:47:01.296Z,99810.66
2022-12-13T19:48:33.804Z,99816.56
2022-12-13T19:50:06.423Z,99807.16
2022-12-13T19:51:40.040Z,99812.22
2022-12-13T19:53:12.386Z,99806.19
2022-12-13T19:54:44.361Z,99808.69
2022-12-13T19:56:18.878Z,99807.09
2022-12-13T19:57:50.951Z,99796.63
2022-12-13T19:59:23.272Z,99801.84
2022-12-13T20:01:02.242Z,99817.25
2022-12-13T20:02:34.626Z,99818.88
2022-12-13T20:04:06.742Z,99812.03
2022-12-13T20:05:43.923Z,99807.03
2022-12-13T20:07:17.619Z,99810.53
2022-12-13T20:08:50.231Z,99810.66
2022-12-13T20:10:22.511Z,99809.16
2022-12-13T20:11:54.449Z,99807.47
2022-12-13T20:13:27.290Z,99804.97
2022-12-13T20:15:02.976Z,99807.56
2022-12-13T20:16:36.220Z,99801.84
2022-12-13T20:18:08.383Z,99798.63
2022-12-13T20:19:40.602Z,99797.97
2022-12-13T20:21:14.968Z,99802.19
2022-12-13T20:22:48.522Z,99811.56
2022-12-13T20:24:20.446Z,99811.03
2022-12-13T20:26:02.847Z,99810.38
2022-12-13T20:27:35.097Z,99800.97
2022-12-13T20:29:07.208Z,99807.88
2022-12-13T20:30:39.285Z,99805.34
2022-12-13T20:32:11.313Z,99807.97
2022-12-13T20:33:43.414Z,99803.88
2022-12-13T20:35:15.487Z,99806.41
2022-12-13T20:36:47.566Z,99799.56